sensor_id;sensor_type;location;lat;lon;timestamp;temperature;humidity
12817;DHT22;6473;51.552;6.716;2023-09-19T00:00:31;15.90;99.90
12817;DHT22;6473;51.552;6.716;2023-09-19T00:02:59;15.80;99.90
12817;DHT22;6473;51.552;6.716;2023-09-19T00:05:28;15.80;99.90
12817;DHT22;6473;51.552;6.716;2023-09-19T00:07:56;15.70;99.90
12817;DHT22;6473;51.552;6.716;2023-09-19T00:10:24;15.80;99.90
12817;DHT22;6473;51.552;6.716;2023-09-19T00:12:52;15.80;99.90
12817;DHT22;6473;51.552;6.716;2023-09-19T00:15:21;15.80;99.90
12817;DHT22;6473;51.552;6.716;2023-09-19T00:17:48;15.80;99.90
12817;DHT22;6473;51.552;6.716;2023-09-19T00:20:18;15.80;99.90
12817;DHT22;6473;51.552;6.716;2023-09-19T00:22:46;15.70;99.90
12817;DHT22;6473;51.552;6.716;2023-09-19T00:25:13;15.70;99.90
12817;DHT22;6473;51.552;6.716;2023-09-19T00:27:41;15.70;99.90
12817;DHT22;6473;51.552;6.716;2023-09-19T00:30:10;15.70;99.90
12817;DHT22;6473;51.552;6.716;2023-09-19T00:32:41;15.60;99.90
12817;DHT22;6473;51.552;6.716;2023-09-19T00:35:08;17.40;99.90
12817;DHT22;6473;51.552;6.716;2023-09-19T00:37:36;15.60;99.90
12817;DHT22;6473;51.552;6.716;2023-09-19T00:40:05;15.60;99.90
12817;DHT22;6473;51.552;6.716;2023-09-19T00:42:38;15.60;99.90
12817;DHT22;6473;51.552;6.716;2023-09-19T00:45:07;15.50;99.90
12817;DHT22;6473;51.552;6.716;2023-09-19T00:47:36;15.50;99.90
12817;DHT22;6473;51.552;6.716;2023-09-19T00:50:04;15.40;99.90
12817;DHT22;6473;51.552;6.716;2023-09-19T00:52:33;15.40;99.90
12817;DHT22;6473;51.552;6.716;2023-09-19T00:55:03;15.40;99.90
12817;DHT22;6473;51.552;6.716;2023-09-19T00:57:32;15.40;99.90
12817;DHT22;6473;51.552;6.716;2023-09-19T01:00:00;15.40;99.90
12817;DHT22;6473;51.552;6.716;2023-09-19T01:02:32;15.30;99.90
12817;DHT22;6473;51.552;6.716;2023-09-19T01:04:59;15.30;99.90
12817;DHT22;6473;51.552;6.716;2023-09-19T01:07:26;15.20;99.90
12817;DHT22;6473;51.552;6.716;2023-09-19T01:09:55;15.30;99.90
12817;DHT22;6473;51.552;6.716;2023-09-19T01:12:33;15.20;99.90
12817;DHT22;6473;51.552;6.716;2023-09-19T01:15:06;15.30;99.90
12817;DHT22;6473;51.552;6.716;2023-09-19T01:17:43;15.20;99.90
12817;DHT22;6473;51.552;6.716;2023-09-19T01:20:22;16.50;99.90
12817;DHT22;6473;51.552;6.716;2023-09-19T01:23:01;15.10;99.90
12817;DHT22;6473;51.552;6.716;2023-09-19T01:28:48;15.10;99.90
12817;DHT22;6473;51.552;6.716;2023-09-19T01:31:21;15.10;99.90
12817;DHT22;6473;51.552;6.716;2023-09-19T01:33:57;15.10;99.90
12817;DHT22;6473;51.552;6.716;2023-09-19T01:36:29;15.10;99.90
12817;DHT22;6473;51.552;6.716;2023-09-19T01:38:57;15.10;99.90
12817;DHT22;6473;51.552;6.716;2023-09-19T01:41:38;15.00;99.90
12817;DHT22;6473;51.552;6.716;2023-09-19T01:44:15;15.00;99.90
12817;DHT22;6473;51.552;6.716;2023-09-19T01:46:45;15.00;99.90
12817;DHT22;6473;51.552;6.716;2023-09-19T01:49:22;15.00;99.90
12817;DHT22;6473;51.552;6.716;2023-09-19T01:52:00;17.00;99.90
12817;DHT22;6473;51.552;6.716;2023-09-19T01:54:32;16.40;99.90
12817;DHT22;6473;51.552;6.716;2023-09-19T01:57:09;15.00;99.90
12817;DHT22;6473;51.552;6.716;2023-09-19T01:59:41;15.70;99.90
12817;DHT22;6473;51.552;6.716;2023-09-19T02:02:12;16.20;99.90
12817;DHT22;6473;51.552;6.716;2023-09-19T02:04:40;14.70;99.90
12817;DHT22;6473;51.552;6.716;2023-09-19T02:07:06;14.70;99.90
12817;DHT22;6473;51.552;6.716;2023-09-19T02:09:34;14.70;99.90
12817;DHT22;6473;51.552;6.716;2023-09-19T02:12:04;14.70;99.90
12817;DHT22;6473;51.552;6.716;2023-09-19T02:14:31;14.70;99.90
12817;DHT22;6473;51.552;6.716;2023-09-19T02:16:58;14.60;99.90
12817;DHT22;6473;51.552;6.716;2023-09-19T02:19:27;14.60;99.90
12817;DHT22;6473;51.552;6.716;2023-09-19T02:21:55;17.80;99.90
12817;DHT22;6473;51.552;6.716;2023-09-19T02:24:22;14.60;99.90
12817;DHT22;6473;51.552;6.716;2023-09-19T02:26:49;14.60;99.90
12817;DHT22;6473;51.552;6.716;2023-09-19T02:29:17;14.60;99.90
12817;DHT22;6473;51.552;6.716;2023-09-19T02:31:44;14.80;99.90
12817;DHT22;6473;51.552;6.716;2023-09-19T02:34:13;15.60;99.90
12817;DHT22;6473;51.552;6.716;2023-09-19T02:36:44;14.60;99.90
12817;DHT22;6473;51.552;6.716;2023-09-19T02:39:11;14.60;99.90
12817;DHT22;6473;51.552;6.716;2023-09-19T02:41:38;14.60;99.90
12817;DHT22;6473;51.552;6.716;2023-09-19T02:44:07;14.60;99.90
12817;DHT22;6473;51.552;6.716;2023-09-19T02:46:34;14.60;99.90
12817;DHT22;6473;51.552;6.716;2023-09-19T02:49:03;14.60;99.90
12817;DHT22;6473;51.552;6.716;2023-09-19T02:51:31;14.60;99.90
12817;DHT22;6473;51.552;6.716;2023-09-19T02:54:00;14.60;99.90
12817;DHT22;6473;51.552;6.716;2023-09-19T02:56:28;14.60;99.90
12817;DHT22;6473;51.552;6.716;2023-09-19T02:58:56;14.60;99.90
12817;DHT22;6473;51.552;6.716;2023-09-19T03:01:23;15.80;99.90
12817;DHT22;6473;51.552;6.716;2023-09-19T03:03:50;14.60;99.90
12817;DHT22;6473;51.552;6.716;2023-09-19T03:06:17;14.60;99.90
12817;DHT22;6473;51.552;6.716;2023-09-19T03:08:47;15.10;99.90
12817;DHT22;6473;51.552;6.716;2023-09-19T03:11:15;15.10;99.90
12817;DHT22;6473;51.552;6.716;2023-09-19T03:13:51;14.50;99.90
12817;DHT22;6473;51.552;6.716;2023-09-19T03:16:18;16.60;99.90
12817;DHT22;6473;51.552;6.716;2023-09-19T03:18:47;14.50;99.90
12817;DHT22;6473;51.552;6.716;2023-09-19T03:21:15;16.30;99.90
12817;DHT22;6473;51.552;6.716;2023-09-19T03:23:43;14.40;99.90
12817;DHT22;6473;51.552;6.716;2023-09-19T03:26:11;14.40;99.90
12817;DHT22;6473;51.552;6.716;2023-09-19T03:28:43;14.40;99.90
12817;DHT22;6473;51.552;6.716;2023-09-19T03:31:12;14.40;99.90
12817;DHT22;6473;51.552;6.716;2023-09-19T03:33:39;16.20;99.90
12817;DHT22;6473;51.552;6.716;2023-09-19T03:36:06;14.30;99.90
12817;DHT22;6473;51.552;6.716;2023-09-19T03:38:33;14.30;99.90
12817;DHT22;6473;51.552;6.716;2023-09-19T03:41:01;14.30;99.90
12817;DHT22;6473;51.552;6.716;2023-09-19T03:43:28;14.30;99.90
12817;DHT22;6473;51.552;6.716;2023-09-19T03:45:56;14.30;99.90
12817;DHT22;6473;51.552;6.716;2023-09-19T03:48:23;15.30;99.90
12817;DHT22;6473;51.552;6.716;2023-09-19T03:50:51;15.90;99.90
12817;DHT22;6473;51.552;6.716;2023-09-19T03:53:19;14.20;99.90
12817;DHT22;6473;51.552;6.716;2023-09-19T03:55:46;14.20;99.90
12817;DHT22;6473;51.552;6.716;2023-09-19T03:58:13;14.20;99.90
12817;DHT22;6473;51.552;6.716;2023-09-19T04:00:40;14.20;99.90
12817;DHT22;6473;51.552;6.716;2023-09-19T04:03:08;14.20;99.90
12817;DHT22;6473;51.552;6.716;2023-09-19T04:05:45;14.10;99.90
12817;DHT22;6473;51.552;6.716;2023-09-19T04:08:13;14.20;99.90
12817;DHT22;6473;51.552;6.716;2023-09-19T04:10:42;16.20;99.90
12817;DHT22;6473;51.552;6.716;2023-09-19T04:13:10;14.10;99.90
12817;DHT22;6473;51.552;6.716;2023-09-19T04:15:37;16.90;99.90
12817;DHT22;6473;51.552;6.716;2023-09-19T04:18:06;14.10;99.90
12817;DHT22;6473;51.552;6.716;2023-09-19T04:20:34;14.10;99.90
12817;DHT22;6473;51.552;6.716;2023-09-19T04:23:01;14.10;99.90
12817;DHT22;6473;51.552;6.716;2023-09-19T04:25:28;14.10;99.90
12817;DHT22;6473;51.552;6.716;2023-09-19T04:27:55;14.00;99.90
12817;DHT22;6473;51.552;6.716;2023-09-19T04:33:48;14.00;99.90
12817;DHT22;6473;51.552;6.716;2023-09-19T04:36:16;14.00;99.90
12817;DHT22;6473;51.552;6.716;2023-09-19T04:38:43;14.00;99.90
12817;DHT22;6473;51.552;6.716;2023-09-19T04:41:10;13.90;99.90
12817;DHT22;6473;51.552;6.716;2023-09-19T04:43:36;14.00;99.90
12817;DHT22;6473;51.552;6.716;2023-09-19T04:46:04;14.00;99.90
12817;DHT22;6473;51.552;6.716;2023-09-19T04:48:32;14.00;99.90
12817;DHT22;6473;51.552;6.716;2023-09-19T04:51:00;14.10;99.90
12817;DHT22;6473;51.552;6.716;2023-09-19T04:53:46;14.00;99.90
12817;DHT22;6473;51.552;6.716;2023-09-19T04:56:13;14.10;99.90
12817;DHT22;6473;51.552;6.716;2023-09-19T04:58:40;14.10;99.90
12817;DHT22;6473;51.552;6.716;2023-09-19T05:01:07;14.00;99.90
12817;DHT22;6473;51.552;6.716;2023-09-19T05:03:37;14.90;99.90
12817;DHT22;6473;51.552;6.716;2023-09-19T05:06:04;14.10;99.90
12817;DHT22;6473;51.552;6.716;2023-09-19T05:08:31;14.00;99.90
12817;DHT22;6473;51.552;6.716;2023-09-19T05:11:01;17.10;99.90
12817;DHT22;6473;51.552;6.716;2023-09-19T05:13:28;14.00;99.90
12817;DHT22;6473;51.552;6.716;2023-09-19T05:15:59;14.10;99.90
12817;DHT22;6473;51.552;6.716;2023-09-19T05:18:27;14.10;99.90
12817;DHT22;6473;51.552;6.716;2023-09-19T05:20:54;14.10;99.90
12817;DHT22;6473;51.552;6.716;2023-09-19T05:23:21;14.20;99.90
12817;DHT22;6473;51.552;6.716;2023-09-19T05:25:48;14.10;99.90
12817;DHT22;6473;51.552;6.716;2023-09-19T05:28:16;14.10;99.90
12817;DHT22;6473;51.552;6.716;2023-09-19T05:30:43;15.40;99.90
12817;DHT22;6473;51.552;6.716;2023-09-19T05:33:10;14.20;99.90
12817;DHT22;6473;51.552;6.716;2023-09-19T05:35:37;14.30;99.90
12817;DHT22;6473;51.552;6.716;2023-09-19T05:38:05;14.30;99.90
12817;DHT22;6473;51.552;6.716;2023-09-19T05:40:34;14.40;99.90
12817;DHT22;6473;51.552;6.716;2023-09-19T05:43:01;16.80;99.90
12817;DHT22;6473;51.552;6.716;2023-09-19T05:45:33;14.40;99.90
12817;DHT22;6473;51.552;6.716;2023-09-19T05:48:08;14.50;99.90
12817;DHT22;6473;51.552;6.716;2023-09-19T05:50:35;14.50;99.90
12817;DHT22;6473;51.552;6.716;2023-09-19T05:53:02;14.60;99.90
12817;DHT22;6473;51.552;6.716;2023-09-19T05:55:30;14.60;99.90
12817;DHT22;6473;51.552;6.716;2023-09-19T05:57:57;14.60;99.90
12817;DHT22;6473;51.552;6.716;2023-09-19T06:00:24;14.70;99.90
12817;DHT22;6473;51.552;6.716;2023-09-19T06:02:55;14.70;99.90
12817;DHT22;6473;51.552;6.716;2023-09-19T06:05:23;16.90;99.90
12817;DHT22;6473;51.552;6.716;2023-09-19T06:07:52;14.70;99.90
12817;DHT22;6473;51.552;6.716;2023-09-19T06:10:19;16.40;99.90
12817;DHT22;6473;51.552;6.716;2023-09-19T06:12:48;17.00;99.90
12817;DHT22;6473;51.552;6.716;2023-09-19T06:15:15;14.90;99.90
12817;DHT22;6473;51.552;6.716;2023-09-19T06:17:47;14.90;99.90
12817;DHT22;6473;51.552;6.716;2023-09-19T06:20:15;16.60;99.90
12817;DHT22;6473;51.552;6.716;2023-09-19T06:22:44;15.00;99.90
12817;DHT22;6473;51.552;6.716;2023-09-19T06:25:12;15.00;99.90
12817;DHT22;6473;51.552;6.716;2023-09-19T06:27:44;15.10;99.90
12817;DHT22;6473;51.552;6.716;2023-09-19T06:30:12;15.00;99.90
12817;DHT22;6473;51.552;6.716;2023-09-19T06:32:39;15.10;99.90
12817;DHT22;6473;51.552;6.716;2023-09-19T06:35:09;17.40;99.90
12817;DHT22;6473;51.552;6.716;2023-09-19T06:37:38;15.10;99.90
12817;DHT22;6473;51.552;6.716;2023-09-19T06:40:07;16.50;99.90
12817;DHT22;6473;51.552;6.716;2023-09-19T06:42:39;15.20;99.90
12817;DHT22;6473;51.552;6.716;2023-09-19T06:45:07;15.10;99.90
12817;DHT22;6473;51.552;6.716;2023-09-19T06:47:34;15.20;99.90
12817;DHT22;6473;51.552;6.716;2023-09-19T06:50:02;15.20;99.90
12817;DHT22;6473;51.552;6.716;2023-09-19T06:52:31;15.20;99.90
12817;DHT22;6473;51.552;6.716;2023-09-19T06:55:00;15.70;99.90
12817;DHT22;6473;51.552;6.716;2023-09-19T06:57:32;17.60;99.90
12817;DHT22;6473;51.552;6.716;2023-09-19T06:59:58;16.50;99.90
12817;DHT22;6473;51.552;6.716;2023-09-19T07:02:27;15.30;99.90
12817;DHT22;6473;51.552;6.716;2023-09-19T07:04:54;15.40;99.90
12817;DHT22;6473;51.552;6.716;2023-09-19T07:07:20;15.40;99.90
12817;DHT22;6473;51.552;6.716;2023-09-19T07:09:47;15.40;99.90
12817;DHT22;6473;51.552;6.716;2023-09-19T07:12:16;15.40;99.90
12817;DHT22;6473;51.552;6.716;2023-09-19T07:14:43;15.40;99.90
12817;DHT22;6473;51.552;6.716;2023-09-19T07:17:10;15.60;99.90
12817;DHT22;6473;51.552;6.716;2023-09-19T07:19:37;15.60;99.90
12817;DHT22;6473;51.552;6.716;2023-09-19T07:22:04;15.70;99.90
12817;DHT22;6473;51.552;6.716;2023-09-19T07:24:33;13.40;99.90
12817;DHT22;6473;51.552;6.716;2023-09-19T07:27:02;15.90;99.90
12817;DHT22;6473;51.552;6.716;2023-09-19T07:29:32;15.80;99.90
12817;DHT22;6473;51.552;6.716;2023-09-19T07:31:59;15.80;99.90
12817;DHT22;6473;51.552;6.716;2023-09-19T07:34:25;15.80;99.90
12817;DHT22;6473;51.552;6.716;2023-09-19T07:36:53;15.80;99.90
12817;DHT22;6473;51.552;6.716;2023-09-19T07:39:19;15.90;99.90
12817;DHT22;6473;51.552;6.716;2023-09-19T07:41:46;16.00;99.90
12817;DHT22;6473;51.552;6.716;2023-09-19T07:44:14;16.00;99.90
12817;DHT22;6473;51.552;6.716;2023-09-19T07:46:42;18.00;99.90
12817;DHT22;6473;51.552;6.716;2023-09-19T07:49:09;18.50;99.90
12817;DHT22;6473;51.552;6.716;2023-09-19T07:51:36;17.60;99.90
12817;DHT22;6473;51.552;6.716;2023-09-19T07:54:04;16.30;99.90
12817;DHT22;6473;51.552;6.716;2023-09-19T07:56:31;16.30;99.90
12817;DHT22;6473;51.552;6.716;2023-09-19T07:58:59;16.40;99.90
12817;DHT22;6473;51.552;6.716;2023-09-19T08:01:26;16.60;99.90
12817;DHT22;6473;51.552;6.716;2023-09-19T08:03:54;16.80;99.90
12817;DHT22;6473;51.552;6.716;2023-09-19T08:06:21;18.40;99.90
12817;DHT22;6473;51.552;6.716;2023-09-19T08:08:50;16.80;99.90
12817;DHT22;6473;51.552;6.716;2023-09-19T08:11:19;17.20;99.90
12817;DHT22;6473;51.552;6.716;2023-09-19T08:13:47;16.90;99.90
12817;DHT22;6473;51.552;6.716;2023-09-19T08:16:14;17.00;99.90
12817;DHT22;6473;51.552;6.716;2023-09-19T08:18:41;18.80;99.90
12817;DHT22;6473;51.552;6.716;2023-09-19T08:21:11;16.90;99.90
12817;DHT22;6473;51.552;6.716;2023-09-19T08:23:40;17.00;99.90
12817;DHT22;6473;51.552;6.716;2023-09-19T08:26:07;17.00;99.90
12817;DHT22;6473;51.552;6.716;2023-09-19T08:28:35;18.30;99.90
12817;DHT22;6473;51.552;6.716;2023-09-19T08:31:02;17.40;97.20
12817;DHT22;6473;51.552;6.716;2023-09-19T08:33:31;17.30;98.70
12817;DHT22;6473;51.552;6.716;2023-09-19T08:35:59;17.40;98.40
12817;DHT22;6473;51.552;6.716;2023-09-19T08:38:27;17.60;99.90
12817;DHT22;6473;51.552;6.716;2023-09-19T08:40:57;17.70;94.30
12817;DHT22;6473;51.552;6.716;2023-09-19T08:43:25;17.60;96.90
12817;DHT22;6473;51.552;6.716;2023-09-19T08:45:54;17.80;93.70
12817;DHT22;6473;51.552;6.716;2023-09-19T08:48:25;17.70;94.70
12817;DHT22;6473;51.552;6.716;2023-09-19T08:50:56;18.00;95.50
12817;DHT22;6473;51.552;6.716;2023-09-19T08:53:34;18.10;89.10
12817;DHT22;6473;51.552;6.716;2023-09-19T08:56:03;18.30;87.60
12817;DHT22;6473;51.552;6.716;2023-09-19T08:58:40;18.10;87.90
12817;DHT22;6473;51.552;6.716;2023-09-19T09:01:10;18.30;88.00
12817;DHT22;6473;51.552;6.716;2023-09-19T09:03:41;18.60;81.50
12817;DHT22;6473;51.552;6.716;2023-09-19T09:06:14;18.50;77.30
12817;DHT22;6473;51.552;6.716;2023-09-19T09:08:44;19.30;77.70
12817;DHT22;6473;51.552;6.716;2023-09-19T09:11:11;18.50;67.30
12817;DHT22;6473;51.552;6.716;2023-09-19T09:13:39;18.50;68.20
12817;DHT22;6473;51.552;6.716;2023-09-19T09:16:07;18.30;71.40
12817;DHT22;6473;51.552;6.716;2023-09-19T09:18:35;19.50;73.60
12817;DHT22;6473;51.552;6.716;2023-09-19T09:21:02;18.90;67.10
12817;DHT22;6473;51.552;6.716;2023-09-19T09:23:31;19.10;62.70
12817;DHT22;6473;51.552;6.716;2023-09-19T09:26:00;19.50;67.40
12817;DHT22;6473;51.552;6.716;2023-09-19T09:28:29;19.40;52.30
12817;DHT22;6473;51.552;6.716;2023-09-19T09:30:57;19.80;36.90
12817;DHT22;6473;51.552;6.716;2023-09-19T09:33:25;20.80;33.30
12817;DHT22;6473;51.552;6.716;2023-09-19T09:35:53;19.50;41.00
12817;DHT22;6473;51.552;6.716;2023-09-19T09:38:24;19.80;32.90
12817;DHT22;6473;51.552;6.716;2023-09-19T09:40:54;19.60;36.00
12817;DHT22;6473;51.552;6.716;2023-09-19T09:43:28;20.50;30.10
12817;DHT22;6473;51.552;6.716;2023-09-19T09:46:13;20.20;17.20
12817;DHT22;6473;51.552;6.716;2023-09-19T09:48:58;19.70;20.10
12817;DHT22;6473;51.552;6.716;2023-09-19T09:51:39;19.30;27.80
12817;DHT22;6473;51.552;6.716;2023-09-19T09:54:11;19.70;26.90
12817;DHT22;6473;51.552;6.716;2023-09-19T09:56:58;19.90;24.90
12817;DHT22;6473;51.552;6.716;2023-09-19T09:59:53;20.20;23.60
12817;DHT22;6473;51.552;6.716;2023-09-19T10:02:26;20.40;19.40
12817;DHT22;6473;51.552;6.716;2023-09-19T10:05:12;20.70;13.70
12817;DHT22;6473;51.552;6.716;2023-09-19T10:07:47;21.30;1.00
12817;DHT22;6473;51.552;6.716;2023-09-19T10:10:32;20.70;13.20
12817;DHT22;6473;51.552;6.716;2023-09-19T10:13:19;20.60;8.50
12817;DHT22;6473;51.552;6.716;2023-09-19T10:15:49;20.80;6.20
12817;DHT22;6473;51.552;6.716;2023-09-19T10:18:20;21.10;1.00
12817;DHT22;6473;51.552;6.716;2023-09-19T10:20:48;22.20;1.00
12817;DHT22;6473;51.552;6.716;2023-09-19T10:23:18;21.20;1.10
12817;DHT22;6473;51.552;6.716;2023-09-19T10:25:48;21.40;1.00
12817;DHT22;6473;51.552;6.716;2023-09-19T10:28:16;21.00;1.00
12817;DHT22;6473;51.552;6.716;2023-09-19T10:30:49;20.70;1.00
12817;DHT22;6473;51.552;6.716;2023-09-19T10:33:22;20.20;8.40
12817;DHT22;6473;51.552;6.716;2023-09-19T10:35:51;20.30;11.10
12817;DHT22;6473;51.552;6.716;2023-09-19T10:38:23;20.50;3.80
12817;DHT22;6473;51.552;6.716;2023-09-19T10:41:01;22.30;1.00
12817;DHT22;6473;51.552;6.716;2023-09-19T10:43:31;20.60;1.00
12817;DHT22;6473;51.552;6.716;2023-09-19T10:46:03;20.60;1.00
12817;DHT22;6473;51.552;6.716;2023-09-19T10:48:31;20.40;2.10
12817;DHT22;6473;51.552;6.716;2023-09-19T10:51:04;21.20;1.00
12817;DHT22;6473;51.552;6.716;2023-09-19T10:53:43;21.90;1.00
12817;DHT22;6473;51.552;6.716;2023-09-19T10:56:19;21.30;1.00
12817;DHT22;6473;51.552;6.716;2023-09-19T10:58:48;21.60;1.00
12817;DHT22;6473;51.552;6.716;2023-09-19T11:01:18;22.10;1.00
12817;DHT22;6473;51.552;6.716;2023-09-19T11:03:46;21.60;1.00
12817;DHT22;6473;51.552;6.716;2023-09-19T11:06:16;21.10;1.00
12817;DHT22;6473;51.552;6.716;2023-09-19T11:08:58;23.00;1.00
12817;DHT22;6473;51.552;6.716;2023-09-19T11:11:46;22.00;1.00
12817;DHT22;6473;51.552;6.716;2023-09-19T11:14:28;20.80;1.00
12817;DHT22;6473;51.552;6.716;2023-09-19T11:20:27;21.20;1.00
12817;DHT22;6473;51.552;6.716;2023-09-19T11:23:20;21.70;1.00
12817;DHT22;6473;51.552;6.716;2023-09-19T11:25:49;22.00;1.00
12817;DHT22;6473;51.552;6.716;2023-09-19T11:28:35;22.20;1.00
12817;DHT22;6473;51.552;6.716;2023-09-19T11:34:43;22.10;1.00
12817;DHT22;6473;51.552;6.716;2023-09-19T11:40:46;21.60;1.00
12817;DHT22;6473;51.552;6.716;2023-09-19T11:43:33;21.80;1.00
12817;DHT22;6473;51.552;6.716;2023-09-19T11:46:06;21.60;1.00
12817;DHT22;6473;51.552;6.716;2023-09-19T11:48:35;21.80;1.00
12817;DHT22;6473;51.552;6.716;2023-09-19T11:51:11;22.10;1.00
12817;DHT22;6473;51.552;6.716;2023-09-19T11:53:45;22.20;1.00
12817;DHT22;6473;51.552;6.716;2023-09-19T11:56:16;22.90;1.00
12817;DHT22;6473;51.552;6.716;2023-09-19T11:58:44;21.80;1.00
12817;DHT22;6473;51.552;6.716;2023-09-19T12:01:13;21.40;1.00
12817;DHT22;6473;51.552;6.716;2023-09-19T12:03:46;24.00;1.00
12817;DHT22;6473;51.552;6.716;2023-09-19T12:06:15;20.70;1.00
12817;DHT22;6473;51.552;6.716;2023-09-19T12:08:42;21.60;1.00
12817;DHT22;6473;51.552;6.716;2023-09-19T12:11:15;22.20;1.00
12817;DHT22;6473;51.552;6.716;2023-09-19T12:13:43;21.50;1.00
12817;DHT22;6473;51.552;6.716;2023-09-19T12:16:12;21.60;1.00
12817;DHT22;6473;51.552;6.716;2023-09-19T12:18:41;22.30;1.00
12817;DHT22;6473;51.552;6.716;2023-09-19T12:21:08;22.30;1.00
12817;DHT22;6473;51.552;6.716;2023-09-19T12:24:06;22.20;1.00
12817;DHT22;6473;51.552;6.716;2023-09-19T12:26:42;21.70;1.00
12817;DHT22;6473;51.552;6.716;2023-09-19T12:29:15;22.30;1.00
12817;DHT22;6473;51.552;6.716;2023-09-19T12:31:53;23.30;1.00
12817;DHT22;6473;51.552;6.716;2023-09-19T12:34:24;22.70;1.00
12817;DHT22;6473;51.552;6.716;2023-09-19T12:37:09;23.50;1.00
12817;DHT22;6473;51.552;6.716;2023-09-19T12:39:46;23.90;1.00
12817;DHT22;6473;51.552;6.716;2023-09-19T12:42:20;23.90;1.00
12817;DHT22;6473;51.552;6.716;2023-09-19T12:44:48;23.70;1.00
12817;DHT22;6473;51.552;6.716;2023-09-19T12:47:18;23.90;1.00
12817;DHT22;6473;51.552;6.716;2023-09-19T12:50:08;24.70;1.00
12817;DHT22;6473;51.552;6.716;2023-09-19T12:52:39;23.80;1.00
12817;DHT22;6473;51.552;6.716;2023-09-19T12:55:07;23.40;1.00
12817;DHT22;6473;51.552;6.716;2023-09-19T12:57:37;23.50;1.00
12817;DHT22;6473;51.552;6.716;2023-09-19T13:00:06;23.30;1.00
12817;DHT22;6473;51.552;6.716;2023-09-19T13:02:36;22.50;1.00
12817;DHT22;6473;51.552;6.716;2023-09-19T13:05:03;19.90;1.00
12817;DHT22;6473;51.552;6.716;2023-09-19T13:07:43;21.90;1.00
12817;DHT22;6473;51.552;6.716;2023-09-19T13:10:09;21.80;1.00
12817;DHT22;6473;51.552;6.716;2023-09-19T13:12:38;21.90;1.00
12817;DHT22;6473;51.552;6.716;2023-09-19T13:15:08;21.90;1.00
12817;DHT22;6473;51.552;6.716;2023-09-19T13:17:45;23.10;1.00
12817;DHT22;6473;51.552;6.716;2023-09-19T13:20:23;23.30;1.00
12817;DHT22;6473;51.552;6.716;2023-09-19T13:22:53;23.00;1.00
12817;DHT22;6473;51.552;6.716;2023-09-19T13:25:22;21.80;1.00
12817;DHT22;6473;51.552;6.716;2023-09-19T13:27:52;21.60;1.00
12817;DHT22;6473;51.552;6.716;2023-09-19T13:30:20;21.60;1.00
12817;DHT22;6473;51.552;6.716;2023-09-19T13:32:47;21.50;1.00
12817;DHT22;6473;51.552;6.716;2023-09-19T13:35:15;21.40;1.00
12817;DHT22;6473;51.552;6.716;2023-09-19T13:37:42;21.00;1.00
12817;DHT22;6473;51.552;6.716;2023-09-19T13:40:13;20.70;1.00
12817;DHT22;6473;51.552;6.716;2023-09-19T13:42:41;20.60;1.00
12817;DHT22;6473;51.552;6.716;2023-09-19T13:45:09;21.30;1.00
12817;DHT22;6473;51.552;6.716;2023-09-19T13:47:37;20.40;1.00
12817;DHT22;6473;51.552;6.716;2023-09-19T13:50:06;20.50;1.00
12817;DHT22;6473;51.552;6.716;2023-09-19T13:52:33;20.80;1.00
12817;DHT22;6473;51.552;6.716;2023-09-19T13:55:00;20.40;1.00
12817;DHT22;6473;51.552;6.716;2023-09-19T13:57:27;20.20;1.00
12817;DHT22;6473;51.552;6.716;2023-09-19T13:59:55;20.40;1.00
12817;DHT22;6473;51.552;6.716;2023-09-19T14:02:23;20.10;1.00
12817;DHT22;6473;51.552;6.716;2023-09-19T14:04:51;22.00;1.00
12817;DHT22;6473;51.552;6.716;2023-09-19T14:07:18;19.90;1.00
12817;DHT22;6473;51.552;6.716;2023-09-19T14:09:45;19.90;1.00
12817;DHT22;6473;51.552;6.716;2023-09-19T14:12:13;19.90;1.00
12817;DHT22;6473;51.552;6.716;2023-09-19T14:14:40;19.90;1.00
12817;DHT22;6473;51.552;6.716;2023-09-19T14:17:07;20.80;1.00
12817;DHT22;6473;51.552;6.716;2023-09-19T14:19:36;19.80;1.00
12817;DHT22;6473;51.552;6.716;2023-09-19T14:22:03;21.50;3.80
12817;DHT22;6473;51.552;6.716;2023-09-19T14:24:33;21.00;1.10
12817;DHT22;6473;51.552;6.716;2023-09-19T14:27:00;20.80;1.00
12817;DHT22;6473;51.552;6.716;2023-09-19T14:29:29;21.30;1.00
12817;DHT22;6473;51.552;6.716;2023-09-19T14:31:56;20.10;1.00
12817;DHT22;6473;51.552;6.716;2023-09-19T14:34:23;19.80;6.80
12817;DHT22;6473;51.552;6.716;2023-09-19T14:36:51;22.60;5.00
12817;DHT22;6473;51.552;6.716;2023-09-19T14:39:19;19.80;2.90
12817;DHT22;6473;51.552;6.716;2023-09-19T14:41:46;19.70;5.00
12817;DHT22;6473;51.552;6.716;2023-09-19T14:44:13;19.80;2.20
12817;DHT22;6473;51.552;6.716;2023-09-19T14:46:41;19.80;2.30
12817;DHT22;6473;51.552;6.716;2023-09-19T14:49:09;19.70;4.70
12817;DHT22;6473;51.552;6.716;2023-09-19T14:51:36;19.90;7.60
12817;DHT22;6473;51.552;6.716;2023-09-19T14:54:06;19.70;4.50
12817;DHT22;6473;51.552;6.716;2023-09-19T14:56:34;20.30;9.40
12817;DHT22;6473;51.552;6.716;2023-09-19T14:59:00;19.40;11.20
12817;DHT22;6473;51.552;6.716;2023-09-19T15:01:28;19.40;15.30
12817;DHT22;6473;51.552;6.716;2023-09-19T15:03:55;21.10;14.60
12817;DHT22;6473;51.552;6.716;2023-09-19T15:06:22;19.30;16.10
12817;DHT22;6473;51.552;6.716;2023-09-19T15:08:49;19.40;10.00
12817;DHT22;6473;51.552;6.716;2023-09-19T15:11:17;19.40;9.40
12817;DHT22;6473;51.552;6.716;2023-09-19T15:13:46;19.50;9.20
12817;DHT22;6473;51.552;6.716;2023-09-19T15:16:13;21.20;12.80
12817;DHT22;6473;51.552;6.716;2023-09-19T15:18:41;19.30;10.80
12817;DHT22;6473;51.552;6.716;2023-09-19T15:21:10;19.30;11.00
12817;DHT22;6473;51.552;6.716;2023-09-19T15:23:38;19.40;11.90
12817;DHT22;6473;51.552;6.716;2023-09-19T15:26:05;19.60;10.80
12817;DHT22;6473;51.552;6.716;2023-09-19T15:28:35;19.50;8.40
12817;DHT22;6473;51.552;6.716;2023-09-19T15:31:03;19.60;9.90
12817;DHT22;6473;51.552;6.716;2023-09-19T15:33:31;19.70;6.80
12817;DHT22;6473;51.552;6.716;2023-09-19T15:36:01;19.80;9.90
12817;DHT22;6473;51.552;6.716;2023-09-19T15:38:29;19.80;2.90
12817;DHT22;6473;51.552;6.716;2023-09-19T15:40:57;19.80;1.40
12817;DHT22;6473;51.552;6.716;2023-09-19T15:43:24;19.70;3.30
12817;DHT22;6473;51.552;6.716;2023-09-19T15:45:52;19.70;7.40
12817;DHT22;6473;51.552;6.716;2023-09-19T15:48:19;21.30;7.30
12817;DHT22;6473;51.552;6.716;2023-09-19T15:50:47;19.60;9.40
12817;DHT22;6473;51.552;6.716;2023-09-19T15:53:14;21.80;10.00
12817;DHT22;6473;51.552;6.716;2023-09-19T15:55:42;19.50;12.20
12817;DHT22;6473;51.552;6.716;2023-09-19T15:58:10;21.70;12.30
12817;DHT22;6473;51.552;6.716;2023-09-19T16:00:40;19.50;13.60
12817;DHT22;6473;51.552;6.716;2023-09-19T16:03:08;19.50;11.50
12817;DHT22;6473;51.552;6.716;2023-09-19T16:05:36;19.40;16.20
12817;DHT22;6473;51.552;6.716;2023-09-19T16:08:06;19.40;15.90
12817;DHT22;6473;51.552;6.716;2023-09-19T16:10:35;19.30;12.90
12817;DHT22;6473;51.552;6.716;2023-09-19T16:13:03;20.40;16.70
12817;DHT22;6473;51.552;6.716;2023-09-19T16:15:30;19.40;14.30
12817;DHT22;6473;51.552;6.716;2023-09-19T16:17:58;19.30;15.20
12817;DHT22;6473;51.552;6.716;2023-09-19T16:20:27;19.20;16.40
12817;DHT22;6473;51.552;6.716;2023-09-19T16:22:54;21.60;19.00